Ridgefield, Illinois
Current Conditions -  °F | °C
As of 7:52 AM on Sunday 25 Jan 2015 (Local Time) from KPWK Reporting Station
Light Snow Light Snow  
Wind Chill: 20°   Ceiling: 700
Heat Index: 31°   Visibility: 0.75mi
Dew Point: 29°   Wind: 15mph
Humidity: 92%   Direction: 30°NNE
Pressure: 29.78"   Gusts: 22mph
Location:  42.2766°N, 88.31°W
Report Text: KPWK 251352Z 03013G19KT 3/4SM -SN BR OVC007 M01/M02 A2978 RMK AO2 SLP090 P0000 T10061017
Loading
Personal Weather Stations






























Interactive Weather Map New forecast layout! Learn more

10-Day Weather Forecast

Advertisements
Track Severe Weather on mobile